Time;durP1;ratioP1;P1;durP2;ratioP2;P2;SDS_P1;SDS_P2;PMS_P1;PMS_P2;Temp;Humidity;BMP_temperature;BMP_pressure;BME280_temperature;BME280_humidity;BME280_pressure;Samples;Min_cycle;Max_cycle;Signal;HPM_P1;HPM_P2
2023/09/17 00:01:12;;;;;;;8.70;6.00;;;14.60;99.90;;;;;;6182017;23;20519;-85
2023/09/17 00:03:40;;;;;;;6.93;5.33;;;14.50;99.90;;;;;;6184942;23;20189;-84
2023/09/17 00:06:08;;;;;;;10.00;5.97;;;14.50;99.90;;;;;;6211081;23;20273;-83
2023/09/17 00:08:34;;;;;;;7.03;5.17;;;14.60;99.90;;;;;;6186759;23;20217;-84
2023/09/17 00:11:00;;;;;;;11.07;7.20;;;14.70;99.90;;;;;;6187029;23;20579;-83
2023/09/17 00:13:26;;;;;;;9.83;6.93;;;14.80;99.90;;;;;;6162671;23;20154;-84
2023/09/17 00:15:53;;;;;;;10.60;7.17;;;14.90;99.90;;;;;;6161630;23;20221;-84
2023/09/17 00:18:18;;;;;;;10.20;7.17;;;14.90;99.90;;;;;;6161786;23;20344;-84
2023/09/17 00:20:44;;;;;;;10.83;7.13;;;14.90;99.90;;;;;;6212781;23;20236;-84
2023/09/17 00:23:10;;;;;;;11.93;8.17;;;14.90;99.90;;;;;;6186146;23;20162;-84
2023/09/17 00:25:37;;;;;;;14.13;7.77;;;15.10;99.90;;;;;;6161760;23;20162;-83
2023/09/17 00:28:03;;;;;;;10.07;7.17;;;15.10;99.90;;;;;;6186229;23;20245;-84
2023/09/17 00:30:29;;;;;;;10.60;7.10;;;15.00;99.90;;;;;;6163048;23;20217;-85
2023/09/17 00:32:55;;;;;;;15.67;7.60;;;15.00;99.90;;;;;;6163246;23;20190;-85
2023/09/17 00:35:20;;;;;;;11.87;7.90;;;14.80;99.90;;;;;;6188301;23;20196;-83
2023/09/17 00:37:46;;;;;;;11.07;7.73;;;14.70;99.90;;;;;;6164067;23;20162;-82
2023/09/17 00:40:12;;;;;;;12.07;8.57;;;14.70;99.90;;;;;;6187888;23;20245;-84
2023/09/17 00:42:40;;;;;;;11.50;7.97;;;14.70;99.90;;;;;;6188264;23;20214;-84
2023/09/17 00:45:06;;;;;;;12.57;7.00;;;14.80;99.90;;;;;;6238011;23;20204;-83
2023/09/17 00:47:32;;;;;;;14.93;7.43;;;14.80;99.90;;;;;;6237565;23;20217;-84
2023/09/17 00:50:00;;;;;;;11.90;7.90;;;14.80;99.90;;;;;;6213140;23;20608;-84
2023/09/17 00:52:27;;;;;;;11.53;7.97;;;14.80;99.90;;;;;;6188678;23;20463;-84
2023/09/17 00:54:54;;;;;;;11.27;7.67;;;14.80;99.90;;;;;;6163311;23;20281;-84
2023/09/17 00:57:21;;;;;;;12.37;8.70;;;14.80;99.90;;;;;;6161868;23;20209;-84
2023/09/17 00:59:47;;;;;;;12.90;8.43;;;14.80;99.90;;;;;;6182812;23;20213;-84
2023/09/17 01:02:17;;;;;;;9.87;6.83;;;14.80;99.90;;;;;;6185322;23;20194;-84
2023/09/17 01:04:49;;;;;;;9.93;7.50;;;14.80;99.90;;;;;;6213597;23;20154;-84
2023/09/17 01:07:18;;;;;;;12.77;9.00;;;14.80;99.90;;;;;;6212612;23;20198;-84
2023/09/17 01:09:44;;;;;;;22.30;9.33;;;14.90;99.90;;;;;;6188264;23;20232;-84
2023/09/17 01:12:11;;;;;;;10.93;7.80;;;15.00;99.90;;;;;;6187938;23;20190;-84
2023/09/17 01:14:37;;;;;;;12.63;8.23;;;14.90;99.90;;;;;;6187656;23;20274;-84
2023/09/17 01:17:09;;;;;;;16.20;8.50;;;14.90;99.90;;;;;;6187559;23;20169;-84
2023/09/17 01:19:35;;;;;;;11.97;9.27;;;14.90;99.90;;;;;;6188261;23;20157;-84
2023/09/17 01:22:06;;;;;;;11.80;8.10;;;14.80;99.90;;;;;;6187460;23;20703;-84
2023/09/17 01:24:48;;;;;;;11.77;8.80;;;14.80;99.90;;;;;;6212521;23;20201;-84
2023/09/17 01:27:18;;;;;;;20.20;9.20;;;14.70;99.90;;;;;;6212534;23;20209;-84
2023/09/17 01:29:48;;;;;;;13.13;8.27;;;14.80;99.90;;;;;;6212464;23;20202;-84
2023/09/17 01:32:15;;;;;;;10.63;8.13;;;14.80;99.90;;;;;;6214034;23;20567;-83
2023/09/17 01:34:43;;;;;;;16.07;9.63;;;14.90;99.90;;;;;;6188577;23;20595;-84
2023/09/17 01:37:15;;;;;;;15.40;9.43;;;14.90;99.90;;;;;;6212381;23;21057;-83
2023/09/17 01:39:53;;;;;;;16.87;9.77;;;14.90;99.90;;;;;;6212018;23;20213;-83
2023/09/17 01:42:19;;;;;;;18.60;11.33;;;15.00;99.90;;;;;;6213568;23;20205;-83
2023/09/17 01:44:47;;;;;;;19.33;11.50;;;15.00;99.90;;;;;;6212337;23;20186;-83
2023/09/17 01:47:15;;;;;;;26.60;10.70;;;15.20;99.90;;;;;;6212203;23;20254;-83
2023/09/17 01:49:42;;;;;;;16.00;10.07;;;15.30;99.90;;;;;;6186683;23;20591;-84
2023/09/17 01:52:09;;;;;;;18.93;10.60;;;15.30;99.90;;;;;;6182635;23;20202;-84
2023/09/17 01:54:35;;;;;;;17.10;12.30;;;15.30;99.90;;;;;;6232961;23;20324;-84
2023/09/17 01:57:01;;;;;;;18.30;11.07;;;15.50;99.90;;;;;;6162412;23;20193;-84
2023/09/17 01:59:27;;;;;;;19.07;10.93;;;15.60;99.90;;;;;;6182084;23;20200;-84
2023/09/17 02:01:53;;;;;;;21.17;11.13;;;15.60;99.90;;;;;;6157952;23;20169;-84
2023/09/17 02:04:19;;;;;;;21.13;11.93;;;15.60;99.90;;;;;;6186418;23;20162;-84
2023/09/17 02:06:45;;;;;;;15.20;10.20;;;15.70;99.90;;;;;;6186982;23;20285;-84
2023/09/17 02:09:12;;;;;;;19.93;12.37;;;15.70;99.90;;;;;;6162436;23;20208;-84
2023/09/17 02:11:39;;;;;;;22.30;11.37;;;15.80;99.90;;;;;;6162793;23;20190;-85
2023/09/17 02:14:05;;;;;;;16.57;10.83;;;15.80;99.90;;;;;;6186574;23;20189;-85
2023/09/17 02:16:31;;;;;;;19.83;11.00;;;15.90;99.90;;;;;;6183421;23;20273;-85
2023/09/17 02:18:59;;;;;;;21.10;12.83;;;15.90;99.90;;;;;;6158509;23;20256;-85
2023/09/17 02:21:24;;;;;;;17.80;10.77;;;16.00;99.90;;;;;;6186549;23;20206;-85
2023/09/17 02:23:51;;;;;;;19.57;11.33;;;16.00;99.90;;;;;;6187087;23;20200;-85
2023/09/17 02:26:16;;;;;;;21.23;11.93;;;16.10;99.90;;;;;;6211987;23;20280;-85
2023/09/17 02:28:42;;;;;;;23.67;13.37;;;16.10;99.90;;;;;;6212177;23;20579;-85
2023/09/17 02:31:08;;;;;;;21.10;14.60;;;16.20;99.90;;;;;;6157859;23;20198;-85
2023/09/17 02:33:34;;;;;;;19.07;12.60;;;16.30;99.90;;;;;;6157514;23;20232;-85
2023/09/17 02:36:00;;;;;;;19.83;13.20;;;16.30;99.90;;;;;;6161589;23;20202;-84
2023/09/17 02:38:26;;;;;;;22.63;13.23;;;16.40;99.90;;;;;;6187196;23;20196;-85
2023/09/17 02:40:52;;;;;;;17.87;11.43;;;16.50;99.90;;;;;;6238013;23;20636;-85
2023/09/17 02:43:18;;;;;;;20.67;11.97;;;16.50;99.90;;;;;;6187229;23;20220;-85
2023/09/17 02:45:44;;;;;;;18.87;11.47;;;16.60;99.90;;;;;;6186717;23;20221;-84
2023/09/17 02:48:11;;;;;;;18.83;12.83;;;16.70;99.90;;;;;;6162094;23;20190;-84
2023/09/17 02:50:39;;;;;;;20.03;11.93;;;16.80;99.90;;;;;;6211992;23;20194;-84
2023/09/17 02:53:06;;;;;;;15.93;10.63;;;16.80;99.90;;;;;;6186874;23;20482;-84
2023/09/17 02:55:34;;;;;;;16.47;11.43;;;16.80;99.90;;;;;;6187140;23;20171;-84
2023/09/17 02:58:02;;;;;;;17.17;11.97;;;16.90;99.90;;;;;;6184130;23;20527;-84
2023/09/17 03:00:34;;;;;;;19.93;11.43;;;16.90;99.90;;;;;;6206371;23;20197;-85
2023/09/17 03:03:00;;;;;;;17.33;10.80;;;16.90;99.90;;;;;;6185369;23;20194;-84
2023/09/17 03:05:26;;;;;;;21.77;11.77;;;16.90;99.90;;;;;;6162472;23;20194;-84
2023/09/17 03:07:53;;;;;;;16.90;11.77;;;16.90;99.90;;;;;;6162529;23;20523;-84
2023/09/17 03:10:20;;;;;;;18.00;11.20;;;17.00;99.90;;;;;;6211848;23;20182;-84
2023/09/17 03:12:46;;;;;;;15.63;10.23;;;17.00;99.90;;;;;;6186637;23;20281;-84
2023/09/17 03:15:16;;;;;;;18.20;11.30;;;17.00;99.90;;;;;;6211637;23;20262;-84
2023/09/17 03:17:44;;;;;;;18.37;11.30;;;17.10;99.90;;;;;;6186751;23;20671;-84
2023/09/17 03:20:13;;;;;;;15.53;11.40;;;17.10;99.90;;;;;;6163243;23;20626;-82
2023/09/17 03:22:44;;;;;;;14.30;10.43;;;17.10;99.90;;;;;;6188159;23;20162;-84
2023/09/17 03:25:11;;;;;;;18.93;11.60;;;17.10;99.90;;;;;;6186661;23;20555;-84
2023/09/17 03:27:38;;;;;;;16.40;10.53;;;17.10;99.90;;;;;;6186262;23;20670;-84
2023/09/17 03:30:05;;;;;;;17.03;11.30;;;17.10;99.90;;;;;;6157584;23;20212;-85
2023/09/17 03:32:33;;;;;;;16.20;11.63;;;17.10;99.90;;;;;;6182073;23;20189;-84
2023/09/17 03:35:00;;;;;;;16.50;11.60;;;17.10;99.90;;;;;;6186377;23;20243;-84
2023/09/17 03:37:26;;;;;;;18.13;12.17;;;17.10;99.90;;;;;;6187034;23;20158;-83
2023/09/17 03:40:08;;;;;;;16.27;10.43;;;17.10;99.90;;;;;;6161985;23;20194;-84
2023/09/17 03:42:38;;;;;;;16.83;10.67;;;17.10;99.90;;;;;;6211185;23;20285;-84
2023/09/17 03:45:05;;;;;;;17.70;11.33;;;17.10;99.90;;;;;;6184978;23;20406;-85
2023/09/17 03:47:34;;;;;;;16.20;11.20;;;17.20;99.90;;;;;;6157382;23;20201;-84
2023/09/17 03:50:00;;;;;;;16.37;10.23;;;17.20;99.90;;;;;;6182056;23;20165;-85
2023/09/17 03:52:29;;;;;;;17.90;11.70;;;17.20;99.90;;;;;;6184301;23;20235;-84
2023/09/17 03:54:55;;;;;;;17.67;10.90;;;17.10;99.90;;;;;;6186173;23;20968;-84
2023/09/17 03:57:21;;;;;;;17.90;10.90;;;17.10;99.90;;;;;;6160569;23;20198;-85
2023/09/17 03:59:47;;;;;;;15.90;10.70;;;17.20;99.90;;;;;;6181706;23;20654;-84
2023/09/17 04:02:14;;;;;;;18.23;11.63;;;17.10;99.90;;;;;;6158383;23;20198;-84
2023/09/17 04:04:39;;;;;;;18.73;11.67;;;17.20;99.90;;;;;;6213937;23;20189;-84
2023/09/17 04:07:05;;;;;;;19.00;10.67;;;17.10;99.90;;;;;;6188060;23;20202;-84
2023/09/17 04:09:31;;;;;;;18.37;10.43;;;17.20;99.90;;;;;;6188385;23;20210;-84
2023/09/17 04:12:04;;;;;;;19.87;12.27;;;17.20;99.90;;;;;;6188290;23;20217;-85
2023/09/17 04:14:31;;;;;;;18.17;10.90;;;17.20;99.90;;;;;;6188351;23;20214;-84
2023/09/17 04:16:59;;;;;;;15.40;11.23;;;17.20;99.90;;;;;;6189013;23;20177;-84
2023/09/17 04:19:27;;;;;;;17.27;12.40;;;17.20;99.90;;;;;;6213525;23;20154;-84
2023/09/17 04:21:53;;;;;;;16.90;11.53;;;17.20;99.90;;;;;;6213387;23;20267;-84
2023/09/17 04:24:19;;;;;;;23.67;13.40;;;17.20;99.90;;;;;;6188287;23;20647;-84
2023/09/17 04:26:46;;;;;;;15.20;10.57;;;17.20;99.90;;;;;;6188306;23;20201;-85
2023/09/17 04:29:12;;;;;;;18.70;11.57;;;17.20;99.90;;;;;;6238813;23;20595;-84
2023/09/17 04:31:38;;;;;;;21.73;13.27;;;17.20;99.90;;;;;;6164091;23;20162;-84
2023/09/17 04:34:04;;;;;;;14.97;10.90;;;17.20;99.90;;;;;;6188150;23;20202;-84
2023/09/17 04:36:30;;;;;;;16.30;11.67;;;17.10;99.90;;;;;;6238187;23;20190;-84
2023/09/17 04:38:55;;;;;;;15.53;10.93;;;17.10;99.90;;;;;;6209457;23;20202;-84
2023/09/17 04:41:21;;;;;;;20.47;11.40;;;17.10;99.90;;;;;;6182737;23;20198;-85
2023/09/17 04:43:47;;;;;;;20.00;10.77;;;17.10;99.90;;;;;;6188589;23;20591;-85
2023/09/17 04:46:13;;;;;;;17.63;11.20;;;17.20;99.90;;;;;;6187562;23;20202;-84
2023/09/17 04:48:39;;;;;;;17.50;12.07;;;17.10;99.90;;;;;;6188074;23;20935;-84
2023/09/17 04:51:06;;;;;;;20.00;11.90;;;17.10;99.90;;;;;;6163150;23;20201;-84
2023/09/17 04:53:32;;;;;;;17.60;12.07;;;17.10;99.90;;;;;;6213238;23;20193;-84
2023/09/17 04:55:58;;;;;;;18.03;11.47;;;17.10;99.90;;;;;;6163586;23;20158;-84
2023/09/17 04:58:24;;;;;;;19.07;11.67;;;17.10;99.90;;;;;;6185679;23;20166;-85
2023/09/17 05:00:53;;;;;;;15.33;11.47;;;17.10;99.90;;;;;;6233495;23;20532;-84
2023/09/17 05:03:19;;;;;;;17.87;12.03;;;17.00;99.90;;;;;;6210260;23;20189;-84
2023/09/17 05:05:46;;;;;;;19.87;12.10;;;17.00;99.90;;;;;;6163027;23;20240;-82
2023/09/17 05:08:16;;;;;;;17.70;11.13;;;17.00;99.90;;;;;;6163933;23;20599;-84
2023/09/17 05:10:43;;;;;;;16.17;11.37;;;17.00;99.90;;;;;;6213719;23;20502;-84
2023/09/17 05:13:09;;;;;;;21.13;13.20;;;17.00;99.90;;;;;;6212616;23;20205;-84
2023/09/17 05:15:35;;;;;;;21.77;12.90;;;17.00;99.90;;;;;;6162791;23;20638;-84
2023/09/17 05:18:06;;;;;;;21.77;13.20;;;17.00;99.90;;;;;;6187955;23;20221;-84
2023/09/17 05:20:31;;;;;;;22.50;13.03;;;17.00;99.90;;;;;;6188701;23;20198;-84
2023/09/17 05:22:57;;;;;;;22.90;13.00;;;17.00;99.90;;;;;;6163052;23;20169;-85
2023/09/17 05:25:23;;;;;;;20.80;12.70;;;17.00;99.90;;;;;;6163942;23;20261;-85
2023/09/17 05:27:49;;;;;;;18.30;13.00;;;17.00;99.90;;;;;;6187625;23;20277;-84
2023/09/17 05:30:14;;;;;;;20.47;11.57;;;17.00;99.90;;;;;;6162520;23;20730;-84
2023/09/17 05:32:40;;;;;;;20.07;12.40;;;17.00;99.90;;;;;;6158526;23;20197;-84
2023/09/17 05:35:07;;;;;;;18.93;12.77;;;17.00;99.90;;;;;;6158442;23;20494;-84
2023/09/17 05:37:33;;;;;;;21.37;12.20;;;17.00;99.90;;;;;;6162649;23;20550;-84
2023/09/17 05:39:59;;;;;;;23.17;12.73;;;17.00;99.90;;;;;;6162719;23;20202;-84
2023/09/17 05:42:25;;;;;;;17.50;10.50;;;17.00;99.90;;;;;;6162380;23;20206;-84
2023/09/17 05:44:51;;;;;;;19.63;12.17;;;17.00;99.90;;;;;;6213772;23;20201;-84
2023/09/17 05:47:17;;;;;;;19.63;12.23;;;17.00;99.90;;;;;;6162629;23;20229;-84
2023/09/17 05:49:43;;;;;;;18.73;11.00;;;17.10;99.90;;;;;;6188472;23;20470;-84
2023/09/17 05:52:09;;;;;;;19.40;10.83;;;17.10;99.90;;;;;;6237554;23;20208;-84
2023/09/17 05:54:34;;;;;;;15.37;10.03;;;17.10;99.90;;;;;;6160375;23;20198;-84
2023/09/17 05:57:00;;;;;;;20.97;12.90;;;17.20;99.90;;;;;;6162520;23;20272;-85
2023/09/17 05:59:26;;;;;;;17.47;10.43;;;17.20;99.90;;;;;;6233603;23;20281;-85
2023/09/17 06:01:52;;;;;;;14.80;10.73;;;17.20;99.90;;;;;;6208461;23;20669;-85
2023/09/17 06:04:17;;;;;;;15.93;12.03;;;17.20;99.90;;;;;;6210855;23;20217;-83
2023/09/17 06:06:43;;;;;;;18.23;10.30;;;17.30;99.90;;;;;;6162328;23;20281;-83
2023/09/17 06:09:09;;;;;;;13.93;10.27;;;17.30;99.90;;;;;;6162384;23;20194;-84
2023/09/17 06:11:35;;;;;;;17.23;11.50;;;17.30;99.90;;;;;;6187468;23;20193;-85
2023/09/17 06:14:01;;;;;;;12.93;9.23;;;17.40;99.90;;;;;;6162865;23;20491;-85
2023/09/17 06:16:27;;;;;;;18.90;11.30;;;17.30;99.90;;;;;;6214170;23;20244;-86
2023/09/17 06:18:54;;;;;;;13.80;8.63;;;17.40;99.90;;;;;;6212920;23;20541;-86
2023/09/17 06:21:20;;;;;;;11.50;8.97;;;17.40;99.90;;;;;;6188547;23;20201;-86
2023/09/17 06:23:46;;;;;;;16.93;10.83;;;17.40;99.90;;;;;;6213166;23;20533;-85
2023/09/17 06:26:12;;;;;;;16.70;10.23;;;17.40;99.90;;;;;;6187837;23;20189;-85
2023/09/17 06:28:37;;;;;;;13.77;9.63;;;17.40;99.90;;;;;;6163877;23;20649;-85
2023/09/17 06:31:03;;;;;;;11.73;8.93;;;17.50;99.90;;;;;;6187797;23;20519;-84
2023/09/17 06:33:30;;;;;;;18.43;11.63;;;17.50;99.90;;;;;;6162857;23;20212;-84
2023/09/17 06:35:56;;;;;;;17.03;8.80;;;17.40;99.90;;;;;;6187725;23;20281;-84
2023/09/17 06:38:22;;;;;;;18.00;10.70;;;17.50;99.90;;;;;;6162759;23;20251;-84
2023/09/17 06:40:48;;;;;;;16.93;9.57;;;17.60;99.90;;;;;;6163294;23;20273;-85
2023/09/17 06:43:15;;;;;;;15.13;9.27;;;17.60;99.90;;;;;;6162478;23;20222;-84
2023/09/17 06:45:41;;;;;;;14.27;10.57;;;17.60;99.90;;;;;;6187325;23;20222;-84
2023/09/17 06:48:07;;;;;;;17.67;11.23;;;17.70;99.90;;;;;;6163150;23;20524;-85
2023/09/17 06:50:32;;;;;;;14.67;10.50;;;17.70;99.90;;;;;;6162574;23;20210;-85
2023/09/17 06:52:58;;;;;;;15.53;10.10;;;17.80;99.90;;;;;;6160196;23;20184;-84
2023/09/17 06:55:24;;;;;;;16.93;8.97;;;17.80;99.90;;;;;;6162823;23;20162;-85
2023/09/17 06:57:50;;;;;;;11.63;10.20;;;17.80;99.90;;;;;;6160265;23;20197;-85
2023/09/17 07:00:15;;;;;;;16.47;10.83;;;17.90;99.90;;;;;;6158257;23;20210;-85
2023/09/17 07:02:41;;;;;;;12.73;9.63;;;17.90;99.90;;;;;;6184837;23;20193;-85
2023/09/17 07:05:10;;;;;;;11.97;9.83;;;17.90;99.90;;;;;;6212895;23;20154;-86
2023/09/17 07:07:36;;;;;;;13.50;9.50;;;18.00;99.90;;;;;;6212872;23;20193;-85
2023/09/17 07:10:04;;;;;;;13.83;9.07;;;18.00;99.90;;;;;;6212643;23;20201;-85
2023/09/17 07:12:29;;;;;;;13.60;9.70;;;18.00;99.90;;;;;;6188267;23;20202;-86
2023/09/17 07:14:55;;;;;;;16.17;8.93;;;18.00;99.90;;;;;;6188090;23;20208;-85
2023/09/17 07:17:21;;;;;;;12.10;9.20;;;18.00;99.90;;;;;;6212731;23;20200;-85
2023/09/17 07:19:47;;;;;;;14.00;9.90;;;18.10;99.90;;;;;;6188771;23;20154;-84
2023/09/17 07:22:14;;;;;;;15.03;8.80;;;18.10;99.90;;;;;;6186831;23;20204;-85
2023/09/17 07:24:41;;;;;;;12.87;8.63;;;18.10;99.90;;;;;;6163172;23;20238;-85
2023/09/17 07:27:08;;;;;;;16.37;9.70;;;18.20;99.90;;;;;;6187491;23;20212;-85
2023/09/17 07:29:33;;;;;;;13.70;10.63;;;18.20;99.90;;;;;;6187619;23;20193;-85
2023/09/17 07:31:59;;;;;;;11.30;9.40;;;18.20;99.90;;;;;;6162671;23;20591;-85
2023/09/17 07:34:26;;;;;;;14.23;8.70;;;18.20;99.90;;;;;;6163077;23;20162;-86
2023/09/17 07:36:53;;;;;;;17.80;11.13;;;18.20;99.90;;;;;;6212997;23;20277;-86
2023/09/17 07:39:19;;;;;;;13.90;10.03;;;18.30;99.90;;;;;;6187934;23;20194;-86
2023/09/17 07:41:45;;;;;;;12.37;8.77;;;18.30;99.90;;;;;;6187330;23;20285;-86
2023/09/17 07:44:10;;;;;;;12.47;8.83;;;18.30;99.90;;;;;;6163323;23;20453;-86
2023/09/17 07:46:36;;;;;;;14.10;9.37;;;18.30;99.90;;;;;;6162869;23;20257;-85
2023/09/17 07:49:02;;;;;;;14.47;9.37;;;18.30;99.90;;;;;;6186743;23;20200;-86
2023/09/17 07:51:27;;;;;;;21.20;10.10;;;18.30;99.90;;;;;;6162185;23;20197;-85
2023/09/17 07:53:53;;;;;;;18.03;10.40;;;18.20;99.90;;;;;;6160221;23;20631;-85
2023/09/17 07:56:19;;;;;;;21.60;10.60;;;18.20;99.90;;;;;;6157708;23;20264;-85
2023/09/17 07:58:45;;;;;;;17.47;9.63;;;18.30;99.90;;;;;;6181261;23;20169;-86
2023/09/17 08:01:11;;;;;;;16.43;10.20;;;18.30;99.90;;;;;;6155958;23;20291;-85
2023/09/17 08:03:37;;;;;;;11.23;8.73;;;18.30;99.90;;;;;;6157435;23;20634;-85
2023/09/17 08:06:03;;;;;;;15.43;10.97;;;18.30;99.90;;;;;;6156370;23;20211;-85
2023/09/17 08:08:29;;;;;;;15.13;10.43;;;18.40;99.90;;;;;;6182121;23;20264;-86
2023/09/17 08:10:55;;;;;;;15.27;9.50;;;18.30;99.90;;;;;;6206367;23;20190;-86
2023/09/17 08:13:21;;;;;;;15.67;9.43;;;18.50;99.90;;;;;;6208968;23;20157;-85
2023/09/17 08:15:50;;;;;;;18.80;10.07;;;18.40;99.90;;;;;;6157809;23;20213;-86
2023/09/17 08:18:17;;;;;;;14.47;10.33;;;18.50;99.90;;;;;;6159229;23;20518;-85
2023/09/17 08:20:43;;;;;;;14.83;9.57;;;18.50;99.90;;;;;;6205930;23;20186;-85
2023/09/17 08:23:08;;;;;;;12.40;9.63;;;18.50;99.90;;;;;;6158295;23;20173;-85
2023/09/17 08:25:34;;;;;;;15.93;10.90;;;18.50;99.90;;;;;;6157512;23;20876;-85
2023/09/17 08:28:00;;;;;;;13.67;9.37;;;18.50;99.90;;;;;;6157289;23;20205;-85
2023/09/17 08:30:26;;;;;;;16.20;11.43;;;18.60;99.90;;;;;;6208699;23;20206;-85
2023/09/17 08:32:52;;;;;;;16.17;9.87;;;18.60;99.90;;;;;;6232943;23;20252;-85
2023/09/17 08:35:18;;;;;;;14.00;7.97;;;18.60;99.90;;;;;;6158655;23;20198;-85
2023/09/17 08:37:45;;;;;;;13.87;8.70;;;18.60;99.90;;;;;;6233018;23;20166;-85
2023/09/17 08:40:17;;;;;;;14.83;10.33;;;18.60;99.90;;;;;;6156370;23;20205;-85
2023/09/17 08:42:45;;;;;;;15.30;9.97;;;18.60;99.90;;;;;;6206602;23;20221;-86
2023/09/17 08:45:12;;;;;;;14.03;10.83;;;18.50;99.90;;;;;;6183071;23;20268;-85
2023/09/17 08:47:38;;;;;;;15.90;10.40;;;18.50;99.90;;;;;;6207742;23;20208;-85
2023/09/17 08:50:11;;;;;;;14.40;10.40;;;18.50;99.90;;;;;;6157709;23;20166;-85
2023/09/17 08:52:44;;;;;;;16.67;10.13;;;18.40;99.90;;;;;;6160670;23;20625;-84
2023/09/17 08:55:11;;;;;;;19.47;9.43;;;18.40;99.90;;;;;;6209097;23;20205;-86
2023/09/17 08:57:40;;;;;;;14.23;9.50;;;18.30;99.90;;;;;;6208853;23;20277;-86
2023/09/17 09:00:10;;;;;;;15.60;9.60;;;18.30;99.90;;;;;;6209220;23;20201;-86
2023/09/17 09:02:44;;;;;;;13.37;9.23;;;18.30;99.90;;;;;;6160475;23;20276;-87
2023/09/17 09:05:11;;;;;;;13.27;9.90;;;18.30;99.90;;;;;;6209743;23;20157;-87
2023/09/17 09:07:39;;;;;;;14.57;8.57;;;18.30;99.90;;;;;;6211492;23;20185;-88
2023/09/17 09:10:06;;;;;;;12.93;9.43;;;18.20;99.90;;;;;;6209996;23;20536;-87
2023/09/17 09:12:33;;;;;;;12.50;8.70;;;18.20;99.90;;;;;;6185366;23;20249;-86
2023/09/17 09:14:59;;;;;;;17.33;10.00;;;18.20;99.90;;;;;;6159974;23;20202;-86
2023/09/17 09:17:26;;;;;;;17.57;10.03;;;18.20;99.90;;;;;;6159121;23;20193;-86
2023/09/17 09:19:52;;;;;;;12.37;10.10;;;18.20;99.90;;;;;;6210480;23;20517;-86
2023/09/17 09:22:18;;;;;;;13.30;8.70;;;18.30;99.90;;;;;;6209489;23;20186;-86
2023/09/17 09:24:48;;;;;;;17.80;9.67;;;18.30;99.90;;;;;;6183772;23;20274;-86
2023/09/17 09:27:14;;;;;;;14.07;9.37;;;18.30;99.90;;;;;;6209523;23;20355;-86
2023/09/17 09:29:43;;;;;;;14.20;8.63;;;18.20;99.90;;;;;;6205585;23;20190;-87
2023/09/17 09:32:12;;;;;;;14.67;7.90;;;18.20;99.90;;;;;;6157711;23;20186;-86
2023/09/17 09:34:40;;;;;;;13.83;8.87;;;18.10;99.90;;;;;;6183366;23;20760;-86
2023/09/17 09:37:08;;;;;;;14.37;8.93;;;18.10;99.90;;;;;;6232581;23;20631;-86
2023/09/17 09:39:35;;;;;;;13.33;9.70;;;18.10;99.90;;;;;;6208091;23;20237;-87
2023/09/17 09:42:04;;;;;;;12.77;9.17;;;18.00;99.90;;;;;;6182741;23;20240;-88
2023/09/17 09:44:31;;;;;;;14.40;9.17;;;18.00;99.90;;;;;;6183599;23;20204;-86
2023/09/17 09:46:59;;;;;;;14.87;9.97;;;18.00;99.90;;;;;;6208648;23;20189;-88
2023/09/17 09:49:25;;;;;;;10.90;9.07;;;18.00;99.90;;;;;;6159800;23;20169;-86
2023/09/17 09:51:55;;;;;;;15.03;9.17;;;18.10;99.90;;;;;;6182769;23;20190;-87
2023/09/17 09:54:20;;;;;;;13.17;9.73;;;18.10;99.90;;;;;;6184354;23;20209;-87
2023/09/17 09:56:49;;;;;;;16.97;9.87;;;18.00;99.90;;;;;;6157687;23;20197;-89
2023/09/17 09:59:16;;;;;;;18.47;10.37;;;18.10;99.90;;;;;;6161202;23;20194;-88
2023/09/17 10:01:42;;;;;;;15.73;9.77;;;18.10;99.90;;;;;;6210523;23;20934;-86
2023/09/17 10:04:10;;;;;;;13.67;10.43;;;18.10;99.90;;;;;;6188265;23;20596;-86
2023/09/17 10:06:39;;;;;;;13.67;10.43;;;18.10;99.90;;;;;;6188524;23;20237;-86
2023/09/17 10:09:06;;;;;;;12.70;8.93;;;18.10;99.90;;;;;;6188573;23;20205;-86
2023/09/17 10:11:33;;;;;;;16.80;10.50;;;18.10;99.90;;;;;;6164357;23;20185;-87
2023/09/17 10:14:03;;;;;;;12.07;7.60;;;18.10;99.90;;;;;;6188812;23;20161;-88
2023/09/17 10:16:36;;;;;;;13.50;8.43;;;17.90;99.90;;;;;;6214337;23;20301;-88
2023/09/17 10:19:06;;;;;;;11.63;7.93;;;17.90;99.90;;;;;;6190241;23;20535;-87
2023/09/17 10:21:38;;;;;;;14.77;8.07;;;17.90;99.90;;;;;;6213647;23;20202;-86
2023/09/17 10:24:05;;;;;;;13.83;9.73;;;17.80;99.90;;;;;;6213504;23;20194;-87
2023/09/17 10:26:34;;;;;;;18.07;10.23;;;17.80;99.90;;;;;;6188087;23;20206;-87
2023/09/17 10:29:02;;;;;;;14.30;9.70;;;17.90;99.90;;;;;;6189399;23;20492;-88
2023/09/17 10:31:29;;;;;;;15.00;9.27;;;18.00;99.90;;;;;;6190048;23;20177;-89
2023/09/17 10:33:56;;;;;;;13.77;10.10;;;18.10;99.90;;;;;;6163724;23;20202;-86
2023/09/17 10:36:23;;;;;;;13.33;8.93;;;18.10;99.90;;;;;;6189378;23;20655;-87
2023/09/17 10:38:52;;;;;;;12.83;8.57;;;18.00;99.90;;;;;;6213820;23;20221;-89
2023/09/17 10:41:21;;;;;;;12.90;8.10;;;17.80;99.90;;;;;;6214027;23;20976;-88
2023/09/17 10:43:48;;;;;;;11.33;7.30;;;17.70;99.90;;;;;;6213693;23;20252;-87
2023/09/17 10:46:15;;;;;;;9.63;6.93;;;17.50;99.90;;;;;;6163891;23;20659;-88
2023/09/17 10:48:42;;;;;;;10.30;5.20;;;17.40;99.90;;;;;;6187968;23;20743;-88
2023/09/17 10:51:08;;;;;;;6.47;5.67;;;17.30;99.90;;;;;;6188743;23;20205;-87
2023/09/17 10:53:34;;;;;;;6.60;4.63;;;17.10;99.90;;;;;;6161403;23;20639;-88
2023/09/17 10:56:12;;;;;;;7.23;5.07;;;17.00;99.90;;;;;;6183380;23;20158;-88
2023/09/17 10:58:46;;;;;;;9.10;5.37;;;16.90;99.90;;;;;;6209047;23;20168;-88
2023/09/17 11:01:26;;;;;;;7.00;4.50;;;16.80;99.90;;;;;;6207490;23;20833;-90
2023/09/17 11:04:00;;;;;;;10.13;6.10;;;16.80;99.90;;;;;;6207729;23;20224;-86
2023/09/17 11:06:31;;;;;;;9.20;6.03;;;16.70;99.90;;;;;;6207337;23;20214;-86
2023/09/17 11:08:57;;;;;;;14.17;5.73;;;16.80;99.90;;;;;;6205273;23;20639;-86
2023/09/17 11:11:26;;;;;;;9.13;5.73;;;16.90;99.90;;;;;;6153545;23;20212;-88
2023/09/17 11:13:55;;;;;;;7.50;5.23;;;16.90;99.90;;;;;;6205923;23;20150;-89
2023/09/17 11:16:24;;;;;;;11.00;6.80;;;17.10;99.90;;;;;;6182413;23;20245;-88
2023/09/17 11:19:11;;;;;;;8.93;6.77;;;17.20;99.90;;;;;;6181628;23;20736;-88
2023/09/17 11:21:39;;;;;;;12.53;7.80;;;17.40;99.90;;;;;;6195522;23;20288;-88
2023/09/17 11:24:10;;;;;;;10.90;6.97;;;17.50;99.90;;;;;;6208530;23;20240;-87
2023/09/17 11:26:41;;;;;;;10.90;6.00;;;17.60;99.90;;;;;;6204891;23;20225;-88
2023/09/17 11:29:17;;;;;;;10.57;7.20;;;17.70;99.90;;;;;;6181582;23;20146;-88
2023/09/17 11:31:52;;;;;;;11.67;7.50;;;17.80;99.90;;;;;;6183373;23;20145;-88
2023/09/17 11:34:28;;;;;;;13.70;8.33;;;18.00;99.90;;;;;;6219731;23;20224;-88
2023/09/17 11:37:01;;;;;;;15.97;8.83;;;18.10;99.90;;;;;;6204964;23;20232;-88
2023/09/17 11:39:27;;;;;;;14.63;8.47;;;18.20;99.90;;;;;;6205864;23;20281;-86
2023/09/17 11:42:05;;;;;;;11.70;9.10;;;18.30;99.90;;;;;;6174392;23;20304;-89
2023/09/17 11:44:34;;;;;;;15.07;8.57;;;18.40;99.90;;;;;;6203057;23;20205;-87
2023/09/17 11:47:07;;;;;;;14.47;8.67;;;18.40;99.90;;;;;;6204268;23;20213;-88
2023/09/17 11:49:33;;;;;;;11.13;8.40;;;18.30;99.90;;;;;;6208167;23;20146;-88
2023/09/17 11:52:09;;;;;;;13.27;7.97;;;18.30;99.90;;;;;;6206053;23;20193;-87
2023/09/17 11:55:01;;;;;;;12.70;7.77;;;18.30;99.90;;;;;;6208300;23;20296;-88
2023/09/17 11:57:27;;;;;;;15.33;7.73;;;18.30;99.90;;;;;;6184824;23;20212;-88
2023/09/17 11:59:56;;;;;;;12.53;8.23;;;18.20;99.90;;;;;;6206936;23;20197;-88
2023/09/17 12:02:26;;;;;;;9.50;6.60;;;18.30;99.90;;;;;;6206365;23;20193;-88
2023/09/17 12:04:55;;;;;;;9.07;6.13;;;18.30;99.90;;;;;;6207128;23;20166;-87
2023/09/17 12:07:25;;;;;;;12.03;7.40;;;18.20;99.90;;;;;;6205523;23;20186;-88
2023/09/17 12:10:08;;;;;;;16.23;8.03;;;18.00;99.90;;;;;;6205504;23;20584;-89
2023/09/17 12:12:36;;;;;;;13.77;7.27;;;18.10;99.90;;;;;;6206115;23;20198;-88
2023/09/17 12:15:10;;;;;;;10.07;6.60;;;18.10;99.90;;;;;;6197220;23;20738;-89
2023/09/17 12:17:36;;;;;;;11.67;7.63;;;18.10;99.90;;;;;;6179255;23;20607;-88
2023/09/17 12:23:27;;;;;;;8.77;6.10;;;18.10;99.90;;;;;;6145767;23;20199;-89
2023/09/17 12:25:55;;;;;;;8.60;6.77;;;18.00;99.90;;;;;;6120158;23;20163;-86
2023/09/17 12:28:27;;;;;;;7.83;6.93;;;18.10;99.90;;;;;;6099565;23;20214;-88
2023/09/17 12:30:54;;;;;;;9.40;6.43;;;18.30;99.90;;;;;;6123930;23;20226;-88
2023/09/17 12:33:20;;;;;;;11.70;9.10;;;18.30;99.90;;;;;;6148287;23;20195;-89
2023/09/17 12:35:46;;;;;;;13.00;8.23;;;18.60;99.90;;;;;;6153515;23;20756;-88
2023/09/17 12:38:12;;;;;;;12.97;8.67;;;18.70;99.90;;;;;;6208835;23;20216;-89